Time;durP1;ratioP1;P1;durP2;ratioP2;P2;SDS_P1;SDS_P2;PMS_P1;PMS_P2;Temp;Humidity;BMP_temperature;BMP_pressure;BME280_temperature;BME280_humidity;BME280_pressure;Samples;Min_cycle;Max_cycle;Signal;HPM_P1;HPM_P2
2021/11/05 00:01:52;;;;;;;9.48;2.17;;;22.10;53.00;;;;;;5234391;27;20581;-58
2021/11/05 00:04:24;;;;;;;8.30;2.00;;;22.10;52.80;;;;;;5236350;28;20062;-56
2021/11/05 00:06:59;;;;;;;5.78;2.28;;;22.10;52.90;;;;;;5220202;28;20047;-58
2021/11/05 00:09:31;;;;;;;5.00;1.90;;;22.10;52.90;;;;;;5243600;28;20512;-56
2021/11/05 00:12:04;;;;;;;6.82;2.00;;;22.10;52.70;;;;;;5237345;28;20681;-57
2021/11/05 00:14:38;;;;;;;8.32;2.05;;;22.10;52.70;;;;;;5240619;28;20063;-55
2021/11/05 00:17:13;;;;;;;5.45;1.70;;;22.10;52.80;;;;;;5253206;28;20055;-59
2021/11/05 00:19:46;;;;;;;6.82;2.28;;;22.10;52.70;;;;;;5256326;28;20364;-58
2021/11/05 00:22:18;;;;;;;4.68;1.67;;;22.10;52.80;;;;;;5241133;28;20040;-55
2021/11/05 00:24:51;;;;;;;5.70;1.85;;;22.10;52.70;;;;;;5245355;28;20535;-58
2021/11/05 00:27:23;;;;;;;4.45;1.70;;;22.10;52.70;;;;;;5224843;28;20044;-56
2021/11/05 00:29:55;;;;;;;3.00;1.58;;;22.10;52.70;;;;;;5245394;28;20047;-55
2021/11/05 00:32:28;;;;;;;4.72;1.77;;;22.10;52.80;;;;;;5244852;28;20082;-55
2021/11/05 00:35:01;;;;;;;6.88;1.50;;;22.10;52.80;;;;;;5247349;28;20508;-55
2021/11/05 00:37:33;;;;;;;3.77;1.87;;;22.00;52.70;;;;;;5245144;28;20395;-56
2021/11/05 00:40:08;;;;;;;4.18;2.17;;;22.10;52.80;;;;;;5241310;28;20063;-58
2021/11/05 00:42:41;;;;;;;7.10;1.70;;;22.00;52.70;;;;;;5247392;28;20056;-56
2021/11/05 00:45:14;;;;;;;2.42;1.70;;;22.10;52.60;;;;;;5222230;28;20060;-58
2021/11/05 00:47:48;;;;;;;;;;;22.10;52.60;;;;;;5248959;28;20051;-55
2021/11/05 00:50:20;;;;;;;4.22;1.63;;;22.00;52.40;;;;;;5242319;28;19923;-54
2021/11/05 00:52:53;;;;;;;2.78;1.80;;;22.00;52.50;;;;;;5242854;28;20399;-58
2021/11/05 00:55:25;;;;;;;5.50;1.58;;;22.00;52.40;;;;;;5244269;28;20475;-54
2021/11/05 00:57:58;;;;;;;5.00;1.60;;;22.00;52.40;;;;;;5240584;28;20044;-57
2021/11/05 01:00:32;;;;;;;4.38;1.75;;;22.00;52.40;;;;;;5236424;28;20498;-56
2021/11/05 01:03:05;;;;;;;4.65;1.80;;;22.00;52.30;;;;;;5242216;28;20081;-54
2021/11/05 01:05:38;;;;;;;7.55;2.05;;;22.00;52.30;;;;;;5247192;28;20078;-54
2021/11/05 01:08:12;;;;;;;3.08;1.60;;;22.00;52.80;;;;;;5243716;28;20058;-52
2021/11/05 01:10:45;;;;;;;3.92;1.90;;;22.00;52.20;;;;;;5240999;28;20567;-57
2021/11/05 01:13:17;;;;;;;3.78;1.20;;;22.00;52.10;;;;;;5244536;28;21798;-54
2021/11/05 01:15:50;;;;;;;4.65;1.77;;;22.00;52.10;;;;;;5245305;28;20052;-53
2021/11/05 01:18:23;;;;;;;2.72;1.70;;;22.00;52.10;;;;;;5242030;28;21390;-56
2021/11/05 01:20:55;;;;;;;3.28;1.65;;;22.00;52.10;;;;;;5245608;28;20039;-56
2021/11/05 01:23:28;;;;;;;2.78;1.45;;;22.00;52.10;;;;;;5249234;28;20055;-57
2021/11/05 01:26:00;;;;;;;2.30;1.40;;;22.00;52.10;;;;;;5264101;27;20052;-58
2021/11/05 01:28:33;;;;;;;3.42;1.63;;;22.00;52.20;;;;;;5257639;28;20040;-55
2021/11/05 01:31:05;;;;;;;3.05;1.48;;;22.00;52.10;;;;;;5255091;28;20047;-55
2021/11/05 01:33:38;;;;;;;4.18;2.00;;;22.00;52.10;;;;;;5253096;28;20039;-53
2021/11/05 01:36:12;;;;;;;7.00;1.60;;;22.00;52.10;;;;;;5248114;28;20054;-59
2021/11/05 01:38:45;;;;;;;4.38;1.80;;;22.00;52.10;;;;;;5251605;28;20048;-53
2021/11/05 01:41:17;;;;;;;3.45;1.70;;;22.00;52.20;;;;;;5256598;28;20047;-52
2021/11/05 01:43:50;;;;;;;6.78;1.77;;;22.00;52.10;;;;;;5249241;28;20044;-56
2021/11/05 01:46:22;;;;;;;4.38;1.70;;;22.00;52.10;;;;;;5252650;28;20043;-58
2021/11/05 01:48:54;;;;;;;3.78;1.58;;;22.00;52.00;;;;;;5242163;27;20048;-53
2021/11/05 01:51:27;;;;;;;3.60;1.67;;;22.00;51.90;;;;;;5242993;28;20035;-53
2021/11/05 01:54:00;;;;;;;3.83;1.50;;;22.00;52.00;;;;;;5243937;28;20056;-54
2021/11/05 01:56:32;;;;;;;2.55;1.63;;;22.00;51.90;;;;;;5249185;28;20054;-54
2021/11/05 01:59:05;;;;;;;3.43;2.13;;;22.00;51.80;;;;;;5244056;28;20053;-55
2021/11/05 02:01:37;;;;;;;6.70;1.30;;;22.00;51.80;;;;;;5222535;28;20052;-56
2021/11/05 02:04:09;;;;;;;2.13;1.42;;;22.00;51.70;;;;;;5245518;28;20052;-53
2021/11/05 02:06:48;;;;;;;2.17;1.10;;;22.00;51.70;;;;;;5244052;28;20150;-51
2021/11/05 02:09:23;;;;;;;4.43;1.27;;;22.00;51.70;;;;;;5228061;28;20397;-53
2021/11/05 02:11:59;;;;;;;3.08;1.40;;;22.00;51.60;;;;;;5245852;28;20044;-53
2021/11/05 02:14:31;;;;;;;3.55;1.25;;;22.00;51.60;;;;;;5245155;28;20039;-53
2021/11/05 02:17:04;;;;;;;5.78;1.67;;;21.90;51.50;;;;;;5254512;28;20047;-56
2021/11/05 02:19:37;;;;;;;3.05;1.27;;;21.90;51.40;;;;;;5258010;28;20048;-51
2021/11/05 02:22:09;;;;;;;3.03;1.23;;;21.90;51.40;;;;;;5246299;28;20381;-51
2021/11/05 02:24:42;;;;;;;2.92;1.17;;;22.00;51.50;;;;;;5263868;28;20550;-57
2021/11/05 02:27:14;;;;;;;2.08;1.10;;;21.90;51.30;;;;;;5226304;28;20059;-56
2021/11/05 02:29:47;;;;;;;1.38;1.15;;;21.90;51.40;;;;;;5260059;28;20043;-55
2021/11/05 02:32:19;;;;;;;1.90;1.02;;;22.00;51.30;;;;;;5257457;28;20610;-56
2021/11/05 02:34:52;;;;;;;1.73;1.10;;;22.00;51.30;;;;;;5250022;28;20041;-55
2021/11/05 02:37:26;;;;;;;1.77;1.20;;;21.90;51.20;;;;;;5264959;28;20051;-53
2021/11/05 02:39:58;;;;;;;1.30;1.08;;;21.90;51.20;;;;;;5237669;28;20071;-54
2021/11/05 02:42:31;;;;;;;1.63;1.17;;;21.90;51.20;;;;;;5249197;28;20044;-54
2021/11/05 02:45:04;;;;;;;1.60;1.20;;;21.90;51.80;;;;;;5222979;28;20043;-52
2021/11/05 02:47:37;;;;;;;2.10;1.42;;;21.90;51.10;;;;;;5242128;28;20063;-55
2021/11/05 02:50:13;;;;;;;3.30;1.70;;;21.90;50.90;;;;;;5244569;28;20072;-57
2021/11/05 02:52:46;;;;;;;2.92;1.65;;;21.90;50.90;;;;;;5251789;28;20059;-54
2021/11/05 02:55:19;;;;;;;3.60;1.45;;;21.90;51.00;;;;;;5255247;28;20055;-52
2021/11/05 02:57:52;;;;;;;2.72;1.33;;;21.90;50.90;;;;;;5253233;28;20043;-52
2021/11/05 03:00:24;;;;;;;1.63;1.10;;;22.00;51.00;;;;;;5247257;28;20408;-56
2021/11/05 03:02:57;;;;;;;2.75;1.10;;;21.90;50.80;;;;;;5242641;28;20062;-55
2021/11/05 03:05:29;;;;;;;1.58;1.20;;;21.90;50.80;;;;;;5236340;28;21742;-54
2021/11/05 03:08:02;;;;;;;3.80;1.35;;;21.90;50.80;;;;;;5238780;28;20050;-53
2021/11/05 03:10:35;;;;;;;2.75;1.35;;;21.90;50.80;;;;;;5225735;28;20062;-54
2021/11/05 03:13:08;;;;;;;1.70;1.25;;;21.90;50.70;;;;;;5244352;28;20047;-54
2021/11/05 03:15:40;;;;;;;2.25;1.33;;;21.90;50.70;;;;;;5240592;28;20290;-55
2021/11/05 03:18:15;;;;;;;3.17;1.10;;;21.90;50.70;;;;;;5227572;28;20036;-55
2021/11/05 03:20:48;;;;;;;2.65;1.33;;;21.90;50.70;;;;;;5243230;28;20428;-58
2021/11/05 03:23:20;;;;;;;2.20;1.55;;;21.90;50.60;;;;;;5245377;28;20512;-53
2021/11/05 03:25:53;;;;;;;1.67;1.15;;;21.90;50.50;;;;;;5247506;28;20051;-57
2021/11/05 03:28:25;;;;;;;3.00;1.17;;;21.90;50.50;;;;;;5241334;28;20102;-55
2021/11/05 03:30:58;;;;;;;1.48;0.80;;;21.90;50.50;;;;;;5246942;28;20052;-57
2021/11/05 03:33:31;;;;;;;2.30;1.33;;;21.90;50.50;;;;;;5220333;28;20048;-54
2021/11/05 03:36:03;;;;;;;2.28;1.02;;;21.90;50.60;;;;;;5247527;28;20052;-52
2021/11/05 03:38:36;;;;;;;3.73;1.53;;;21.90;50.50;;;;;;5247530;28;20963;-54
2021/11/05 03:41:09;;;;;;;2.22;1.20;;;21.90;50.40;;;;;;5243931;28;20693;-54
2021/11/05 03:43:43;;;;;;;2.35;1.33;;;21.90;50.50;;;;;;5248868;28;20102;-53
2021/11/05 03:46:15;;;;;;;2.33;1.33;;;21.90;50.40;;;;;;5251925;28;20519;-57
2021/11/05 03:48:48;;;;;;;3.22;1.20;;;21.90;50.40;;;;;;5246945;28;20051;-57
2021/11/05 03:51:20;;;;;;;4.18;1.15;;;21.90;50.40;;;;;;5253174;28;20039;-54
2021/11/05 03:53:52;;;;;;;1.92;1.05;;;21.90;50.40;;;;;;5243391;28;20048;-54
2021/11/05 03:56:25;;;;;;;5.68;1.40;;;21.90;50.40;;;;;;5248014;28;20506;-54
2021/11/05 03:58:58;;;;;;;1.60;0.93;;;21.90;50.40;;;;;;5248182;28;20522;-56
2021/11/05 04:01:30;;;;;;;1.52;1.27;;;21.90;50.30;;;;;;5243907;28;20058;-57
2021/11/05 04:04:03;;;;;;;2.22;1.20;;;21.90;50.30;;;;;;5248680;28;20328;-55
2021/11/05 04:06:36;;;;;;;2.23;1.13;;;21.90;50.20;;;;;;5241292;28;20055;-55
2021/11/05 04:09:08;;;;;;;2.30;1.40;;;21.90;50.20;;;;;;5249043;28;20808;-57
2021/11/05 04:11:41;;;;;;;2.70;1.30;;;21.90;50.20;;;;;;5237415;28;20054;-55
2021/11/05 04:14:13;;;;;;;2.35;1.35;;;21.90;50.10;;;;;;5230739;28;20523;-54
2021/11/05 04:16:46;;;;;;;1.77;1.05;;;21.90;50.10;;;;;;5247342;28;20071;-58
2021/11/05 04:19:18;;;;;;;5.75;1.20;;;21.80;50.10;;;;;;5247558;28;20647;-55
2021/11/05 04:21:51;;;;;;;3.42;1.30;;;21.90;50.10;;;;;;5234107;28;20044;-54
2021/11/05 04:24:23;;;;;;;6.70;1.25;;;21.90;50.30;;;;;;5240631;28;20048;-57
2021/11/05 04:26:56;;;;;;;3.33;1.15;;;21.90;50.30;;;;;;5248068;28;21329;-53
2021/11/05 04:29:28;;;;;;;1.55;1.08;;;21.90;50.30;;;;;;5224797;28;20277;-58
2021/11/05 04:32:01;;;;;;;4.00;1.85;;;21.80;50.10;;;;;;5248436;28;20047;-54
2021/11/05 04:34:33;;;;;;;2.97;1.00;;;21.90;50.10;;;;;;5217925;28;20056;-57
2021/11/05 04:37:05;;;;;;;10.05;1.80;;;21.80;50.10;;;;;;5219652;28;20705;-54
2021/11/05 04:39:38;;;;;;;6.70;1.45;;;21.90;50.00;;;;;;5243128;28;20595;-51
2021/11/05 04:42:10;;;;;;;7.03;1.42;;;21.90;50.10;;;;;;5248206;28;20059;-57
2021/11/05 04:44:43;;;;;;;8.68;1.58;;;21.90;50.30;;;;;;5229083;28;20136;-56
2021/11/05 04:47:16;;;;;;;5.38;1.50;;;21.90;50.40;;;;;;5247407;28;20055;-56
2021/11/05 04:49:48;;;;;;;3.25;1.30;;;21.90;50.50;;;;;;5246056;28;20153;-58
2021/11/05 04:52:21;;;;;;;5.15;1.45;;;21.90;50.60;;;;;;5250508;28;20067;-55
2021/11/05 04:54:53;;;;;;;3.95;1.45;;;21.90;50.70;;;;;;5256164;28;20052;-57
2021/11/05 04:57:26;;;;;;;7.38;2.00;;;21.90;50.90;;;;;;5245609;28;20040;-54
2021/11/05 04:59:59;;;;;;;5.30;1.45;;;21.90;51.60;;;;;;5246022;28;20043;-56
2021/11/05 05:02:31;;;;;;;3.60;1.08;;;21.90;51.00;;;;;;5238626;28;20067;-56
2021/11/05 05:05:05;;;;;;;3.00;1.30;;;21.90;51.00;;;;;;5246079;28;20039;-57
2021/11/05 05:07:37;;;;;;;2.35;1.25;;;21.90;51.10;;;;;;5233539;28;20044;-58
2021/11/05 05:10:11;;;;;;;3.60;1.35;;;21.90;51.20;;;;;;5243960;28;20047;-53
2021/11/05 05:12:43;;;;;;;;;;;21.90;51.30;;;;;;5225890;28;20071;-51
2021/11/05 05:15:16;;;;;;;5.75;1.50;;;21.90;51.40;;;;;;5243052;28;19920;-56
2021/11/05 05:17:49;;;;;;;4.40;1.15;;;21.90;51.50;;;;;;5244109;28;20036;-58
2021/11/05 05:20:22;;;;;;;3.00;1.27;;;21.90;51.50;;;;;;5241338;28;20062;-55
2021/11/05 05:23:01;;;;;;;2.78;1.13;;;21.90;51.60;;;;;;5249187;28;20059;-54
2021/11/05 05:25:33;;;;;;;4.55;1.33;;;21.90;51.60;;;;;;5237077;28;21422;-51
2021/11/05 05:28:05;;;;;;;4.80;1.35;;;21.90;51.60;;;;;;5242894;28;20506;-56
2021/11/05 05:30:38;;;;;;;8.77;1.73;;;21.90;51.80;;;;;;5261358;28;20040;-53
2021/11/05 05:33:10;;;;;;;2.50;1.23;;;21.90;51.80;;;;;;5234544;28;20051;-58
2021/11/05 05:35:43;;;;;;;11.50;1.70;;;21.90;51.90;;;;;;5237609;28;20044;-54
2021/11/05 05:38:15;;;;;;;4.93;1.58;;;22.00;51.90;;;;;;5227470;28;20043;-55
2021/11/05 05:40:48;;;;;;;7.95;1.60;;;22.00;51.90;;;;;;5239335;28;21321;-54
2021/11/05 05:43:20;;;;;;;2.30;1.23;;;22.00;51.90;;;;;;5241869;28;20048;-58
2021/11/05 05:45:53;;;;;;;13.90;1.75;;;22.00;52.00;;;;;;5219577;28;20788;-57
2021/11/05 05:48:26;;;;;;;13.48;2.00;;;22.10;52.10;;;;;;5236434;28;20173;-56
2021/11/05 05:50:58;;;;;;;11.20;1.77;;;22.10;52.10;;;;;;5236575;28;20048;-56
2021/11/05 05:53:30;;;;;;;13.57;1.88;;;22.10;52.10;;;;;;5236474;28;20416;-53
2021/11/05 05:56:03;;;;;;;6.95;1.40;;;22.10;52.10;;;;;;5241716;28;20048;-54
2021/11/05 05:58:36;;;;;;;3.30;1.30;;;22.10;52.10;;;;;;5243806;28;20048;-56
2021/11/05 06:01:08;;;;;;;12.65;1.80;;;22.10;52.10;;;;;;5235857;28;20657;-55
2021/11/05 06:03:40;;;;;;;9.68;1.50;;;22.10;52.20;;;;;;5224503;28;20047;-57
2021/11/05 06:06:13;;;;;;;10.15;1.88;;;22.20;52.40;;;;;;5216656;28;20522;-54
2021/11/05 06:08:45;;;;;;;5.40;1.73;;;22.20;52.40;;;;;;5239839;28;20052;-58
2021/11/05 06:11:17;;;;;;;10.40;1.80;;;22.20;52.40;;;;;;5235122;27;20063;-54
2021/11/05 06:13:51;;;;;;;16.15;1.80;;;22.20;52.40;;;;;;5236942;28;20163;-55
2021/11/05 06:16:23;;;;;;;11.43;1.80;;;22.20;52.40;;;;;;5234377;28;20050;-53
2021/11/05 06:18:56;;;;;;;6.18;1.77;;;22.20;52.30;;;;;;5237757;28;20059;-60
2021/11/05 06:21:28;;;;;;;11.45;1.55;;;22.20;52.40;;;;;;5237763;28;20050;-53
2021/11/05 06:24:01;;;;;;;12.18;2.00;;;22.20;53.30;;;;;;5235108;28;20086;-56
2021/11/05 06:26:33;;;;;;;14.52;2.47;;;22.30;52.80;;;;;;5217517;28;20555;-59
2021/11/05 06:29:06;;;;;;;21.42;2.63;;;22.30;52.90;;;;;;5223500;28;20043;-58
2021/11/05 06:31:38;;;;;;;22.50;2.75;;;22.30;53.00;;;;;;5224679;28;20055;-59
2021/11/05 06:34:11;;;;;;;28.98;3.03;;;22.30;53.10;;;;;;5229470;28;20043;-61
2021/11/05 06:36:43;;;;;;;21.42;2.70;;;22.30;53.20;;;;;;5240637;28;20051;-57
2021/11/05 06:39:16;;;;;;;17.65;2.20;;;22.30;53.10;;;;;;5246842;28;20775;-55
2021/11/05 06:41:48;;;;;;;18.40;2.38;;;22.30;53.10;;;;;;5240972;28;20647;-58
2021/11/05 06:44:20;;;;;;;12.95;2.30;;;22.30;52.90;;;;;;5247644;28;20059;-57
2021/11/05 06:46:53;;;;;;;12.88;2.92;;;22.30;52.70;;;;;;5248967;28;20635;-54
2021/11/05 06:49:26;;;;;;;14.38;2.42;;;22.30;52.70;;;;;;5251113;28;20123;-59
2021/11/05 06:51:58;;;;;;;14.55;1.90;;;22.40;52.60;;;;;;5238484;28;20046;-60
2021/11/05 06:54:31;;;;;;;11.73;1.88;;;22.40;52.60;;;;;;5236232;28;20040;-57
2021/11/05 06:57:03;;;;;;;14.95;1.88;;;22.30;53.00;;;;;;5212383;28;20069;-57
2021/11/05 06:59:36;;;;;;;11.98;2.25;;;22.40;52.50;;;;;;5222957;28;20404;-61
2021/11/05 07:02:09;;;;;;;10.40;2.03;;;22.30;52.30;;;;;;5219723;28;20679;-58
2021/11/05 07:04:42;;;;;;;5.67;1.53;;;22.40;52.40;;;;;;5218461;28;20051;-56
2021/11/05 07:07:14;;;;;;;9.80;1.80;;;22.40;52.40;;;;;;5217411;28;20047;-57
2021/11/05 07:09:47;;;;;;;12.85;1.55;;;22.40;52.40;;;;;;5233945;28;20058;-57
2021/11/05 07:12:19;;;;;;;10.02;1.73;;;22.40;52.40;;;;;;5234212;28;20323;-52
2021/11/05 07:14:51;;;;;;;6.88;1.90;;;22.40;52.30;;;;;;5214375;27;20048;-59
2021/11/05 07:17:24;;;;;;;9.95;1.63;;;22.40;52.30;;;;;;5238622;28;20048;-57
2021/11/05 07:19:56;;;;;;;8.27;1.90;;;22.40;52.30;;;;;;5234101;28;20063;-57
2021/11/05 07:22:29;;;;;;;7.90;1.65;;;22.40;52.30;;;;;;5241044;28;20075;-56
2021/11/05 07:25:01;;;;;;;8.00;1.40;;;22.40;52.30;;;;;;5241547;28;20051;-57
2021/11/05 07:27:35;;;;;;;11.85;1.88;;;22.40;52.20;;;;;;5224534;28;20051;-57
2021/11/05 07:30:10;;;;;;;12.80;1.52;;;22.40;52.10;;;;;;5225418;28;20047;-55
2021/11/05 07:32:46;;;;;;;7.28;1.73;;;22.40;52.00;;;;;;5238393;28;20170;-55
2021/11/05 07:35:21;;;;;;;5.60;1.33;;;22.40;51.90;;;;;;5238771;28;20877;-57
2021/11/05 07:37:54;;;;;;;9.80;2.10;;;22.40;51.90;;;;;;5235804;28;20035;-59
2021/11/05 07:40:26;;;;;;;6.45;1.33;;;22.40;51.80;;;;;;5248110;27;20054;-58
2021/11/05 07:43:00;;;;;;;7.05;1.80;;;22.40;51.80;;;;;;5248630;28;20040;-55
2021/11/05 07:45:32;;;;;;;14.13;2.00;;;22.50;51.80;;;;;;5223513;28;20063;-54
2021/11/05 07:48:05;;;;;;;9.18;1.65;;;22.40;51.80;;;;;;5243484;28;20047;-61
2021/11/05 07:50:38;;;;;;;9.07;1.73;;;22.50;51.80;;;;;;5236785;27;20381;-57
2021/11/05 07:53:10;;;;;;;7.28;1.65;;;22.40;51.70;;;;;;5250263;28;20059;-57
2021/11/05 07:55:45;;;;;;;2.88;1.10;;;22.50;51.80;;;;;;5223432;28;20523;-57
2021/11/05 07:58:18;;;;;;;5.03;1.63;;;22.50;51.80;;;;;;5240996;28;20040;-57
2021/11/05 08:00:50;;;;;;;4.78;1.20;;;22.50;51.70;;;;;;5221255;28;20496;-57
2021/11/05 08:03:24;;;;;;;9.55;1.98;;;22.50;51.70;;;;;;5244487;28;20047;-56
2021/11/05 08:05:56;;;;;;;7.45;1.40;;;22.50;51.70;;;;;;5241019;28;20411;-61
2021/11/05 08:08:29;;;;;;;3.38;1.20;;;22.50;51.70;;;;;;5243100;28;20052;-55
2021/11/05 08:11:03;;;;;;;19.40;1.63;;;22.50;51.70;;;;;;5214224;28;20051;-61
2021/11/05 08:13:35;;;;;;;17.45;1.80;;;22.50;52.30;;;;;;5241425;28;22573;-55
2021/11/05 08:16:09;;;;;;;13.35;1.55;;;22.50;52.40;;;;;;5240532;28;20098;-57
2021/11/05 08:18:43;;;;;;;;;;;22.50;52.40;;;;;;5248801;28;20048;-56
2021/11/05 08:21:15;;;;;;;6.40;1.42;;;22.50;52.50;;;;;;5249787;28;19927;-58
2021/11/05 08:23:48;;;;;;;5.60;1.30;;;22.60;52.50;;;;;;5220852;28;20320;-57
2021/11/05 08:26:20;;;;;;;8.48;1.60;;;22.60;52.60;;;;;;5242134;28;20276;-50
2021/11/05 08:28:53;;;;;;;8.97;1.60;;;22.60;52.60;;;;;;5234133;28;20202;-56
2021/11/05 08:31:26;;;;;;;5.87;1.30;;;22.60;53.10;;;;;;5231774;28;20066;-57
2021/11/05 08:33:59;;;;;;;6.07;1.17;;;22.70;53.40;;;;;;5210819;28;20658;-59
2021/11/05 08:36:32;;;;;;;6.90;1.47;;;22.70;53.60;;;;;;5242712;28;20043;-56
2021/11/05 08:39:05;;;;;;;11.57;1.70;;;22.70;53.60;;;;;;5230251;28;20776;-55
2021/11/05 08:41:37;;;;;;;8.80;1.67;;;22.70;53.70;;;;;;5247607;28;20215;-55
2021/11/05 08:44:11;;;;;;;9.50;1.48;;;22.70;53.90;;;;;;5227804;28;20047;-54
2021/11/05 08:46:43;;;;;;;8.35;1.40;;;22.70;53.80;;;;;;5249184;28;20051;-60
2021/11/05 08:49:16;;;;;;;7.07;1.60;;;22.60;53.70;;;;;;5242780;28;20060;-58
2021/11/05 08:51:49;;;;;;;5.18;1.23;;;22.60;53.60;;;;;;5240194;28;20059;-51
2021/11/05 08:54:22;;;;;;;5.25;1.60;;;22.70;53.60;;;;;;5242257;28;20316;-53
2021/11/05 08:56:55;;;;;;;3.67;1.05;;;22.60;53.50;;;;;;5239544;28;20052;-48
2021/11/05 08:59:28;;;;;;;5.83;1.37;;;22.60;53.50;;;;;;5219253;28;20063;-56
2021/11/05 09:02:00;;;;;;;4.05;1.27;;;22.60;53.40;;;;;;5245331;28;20047;-54
2021/11/05 09:04:32;;;;;;;4.15;1.10;;;22.60;53.30;;;;;;5223951;28;20054;-55
2021/11/05 09:07:05;;;;;;;5.95;1.27;;;22.60;53.30;;;;;;5241210;28;20070;-57
2021/11/05 09:09:41;;;;;;;5.20;1.75;;;22.60;53.20;;;;;;5246544;28;20048;-53
2021/11/05 09:12:19;;;;;;;5.30;1.17;;;22.60;53.30;;;;;;5240881;28;20306;-52
2021/11/05 09:14:52;;;;;;;5.95;1.33;;;22.60;53.20;;;;;;5242066;28;20058;-51
2021/11/05 09:17:25;;;;;;;7.22;1.38;;;22.60;53.20;;;;;;5238443;28;22276;-55
2021/11/05 09:19:59;;;;;;;8.30;1.25;;;22.60;53.20;;;;;;5240413;28;20300;-55
2021/11/05 09:22:32;;;;;;;8.10;1.30;;;22.60;53.20;;;;;;5244746;28;20044;-55
2021/11/05 09:25:06;;;;;;;3.57;1.47;;;22.60;53.20;;;;;;5246134;28;20047;-55
2021/11/05 09:27:39;;;;;;;6.40;1.50;;;22.60;53.10;;;;;;5243891;28;20055;-53
2021/11/05 09:30:12;;;;;;;5.20;1.60;;;22.60;53.10;;;;;;5249319;28;20043;-56
2021/11/05 09:32:45;;;;;;;;;;;22.60;53.00;;;;;;5219328;28;20586;-56
2021/11/05 09:35:18;;;;;;;5.38;1.20;;;22.60;53.00;;;;;;5237841;28;19923;-55
2021/11/05 09:37:51;;;;;;;3.20;1.42;;;22.60;53.10;;;;;;5238499;28;20043;-56
2021/11/05 09:40:26;;;;;;;6.13;1.10;;;22.60;53.10;;;;;;5240751;28;20051;-56
2021/11/05 09:42:59;;;;;;;7.05;1.50;;;22.60;53.20;;;;;;5238603;28;20804;-52
2021/11/05 09:45:31;;;;;;;2.70;1.05;;;22.60;53.20;;;;;;5234689;28;20325;-54
2021/11/05 09:48:04;;;;;;;4.18;1.45;;;22.60;53.10;;;;;;5248902;28;20040;-58
2021/11/05 09:50:38;;;;;;;4.53;1.20;;;22.60;53.10;;;;;;5245407;28;20043;-59
2021/11/05 09:53:11;;;;;;;3.78;1.00;;;22.60;53.00;;;;;;5244979;28;20094;-56
2021/11/05 09:55:46;;;;;;;2.87;1.10;;;22.60;53.00;;;;;;5246549;28;20052;-55
2021/11/05 09:58:18;;;;;;;2.45;1.23;;;22.60;53.00;;;;;;5251924;28;20074;-55
2021/11/05 10:00:51;;;;;;;5.80;1.33;;;22.60;52.90;;;;;;5243708;27;20503;-58
2021/11/05 10:03:23;;;;;;;5.17;1.73;;;22.60;52.90;;;;;;5242722;28;21210;-52
2021/11/05 10:05:56;;;;;;;3.33;1.30;;;22.60;52.90;;;;;;5252671;28;20048;-54
2021/11/05 10:08:31;;;;;;;7.15;1.45;;;22.60;52.90;;;;;;5226849;28;20113;-56
2021/11/05 10:11:24;;;;;;;2.97;1.23;;;22.60;52.90;;;;;;5199759;28;20287;-61
2021/11/05 10:13:58;;;;;;;3.42;1.10;;;22.60;52.80;;;;;;5250829;28;20487;-57
2021/11/05 10:16:32;;;;;;;3.15;1.17;;;22.60;52.80;;;;;;5246416;28;20388;-53
2021/11/05 10:19:07;;;;;;;3.03;1.10;;;22.60;52.80;;;;;;5254281;28;20522;-54
2021/11/05 10:21:43;;;;;;;4.45;1.23;;;22.60;52.80;;;;;;5247239;28;20039;-58
2021/11/05 10:24:18;;;;;;;5.43;1.20;;;22.60;52.80;;;;;;5235138;28;20036;-57
2021/11/05 10:26:51;;;;;;;1.92;1.10;;;22.60;52.80;;;;;;5243947;27;20039;-57
2021/11/05 10:29:26;;;;;;;7.77;1.67;;;22.60;52.70;;;;;;5246004;28;20055;-60
2021/11/05 10:32:07;;;;;;;2.95;1.30;;;22.60;52.70;;;;;;5243975;28;20048;-57
2021/11/05 10:34:51;;;;;;;3.63;1.40;;;22.60;52.70;;;;;;5244601;28;20054;-60
2021/11/05 10:37:34;;;;;;;2.28;1.15;;;22.60;52.60;;;;;;5247664;28;20044;-51
2021/11/05 10:40:08;;;;;;;4.53;1.20;;;22.60;52.60;;;;;;5251373;28;20056;-60
2021/11/05 10:42:46;;;;;;;7.15;1.40;;;22.60;52.60;;;;;;5242254;28;20051;-54
2021/11/05 10:45:22;;;;;;;2.58;1.13;;;22.60;52.70;;;;;;5247125;28;20411;-55
2021/11/05 10:47:55;;;;;;;2.55;1.10;;;22.60;52.60;;;;;;5251429;28;20487;-53
2021/11/05 10:50:36;;;;;;;2.07;1.10;;;22.60;52.70;;;;;;5242851;27;20044;-56
2021/11/05 10:53:13;;;;;;;3.05;1.20;;;22.60;52.90;;;;;;5248870;28;20401;-55
2021/11/05 10:55:50;;;;;;;3.45;0.90;;;22.60;52.70;;;;;;5246196;28;20039;-61
2021/11/05 10:58:26;;;;;;;2.65;0.98;;;22.60;52.70;;;;;;5257392;28;20044;-58
2021/11/05 11:01:10;;;;;;;3.05;1.05;;;22.60;52.80;;;;;;5244444;28;20048;-53
2021/11/05 11:03:50;;;;;;;3.25;0.98;;;22.60;52.70;;;;;;5239863;28;20048;-52
2021/11/05 11:06:27;;;;;;;2.28;1.00;;;22.60;52.80;;;;;;5233517;28;20553;-55
2021/11/05 11:09:05;;;;;;;1.77;1.08;;;22.60;52.80;;;;;;5244819;28;20511;-59
2021/11/05 11:11:43;;;;;;;1.80;1.00;;;22.60;52.70;;;;;;5248622;28;20039;-55
2021/11/05 11:14:17;;;;;;;2.33;1.40;;;22.60;52.80;;;;;;5244390;27;20066;-60
2021/11/05 11:16:53;;;;;;;3.95;1.10;;;22.60;52.80;;;;;;5240634;28;20047;-55
2021/11/05 11:19:28;;;;;;;2.10;1.05;;;22.60;52.70;;;;;;5242576;28;20051;-60
2021/11/05 11:22:06;;;;;;;2.00;1.35;;;22.60;52.70;;;;;;5240918;28;20047;-60
2021/11/05 11:24:41;;;;;;;3.05;1.20;;;22.60;52.70;;;;;;5242656;27;20719;-60
2021/11/05 11:27:15;;;;;;;1.83;1.00;;;22.60;52.70;;;;;;5222305;28;20044;-52
2021/11/05 11:29:58;;;;;;;1.27;1.17;;;22.60;52.70;;;;;;5244646;28;20054;-56
2021/11/05 11:32:32;;;;;;;1.85;1.00;;;22.60;52.70;;;;;;5237435;28;20118;-57
2021/11/05 11:35:05;;;;;;;1.88;0.93;;;22.60;52.60;;;;;;5241064;28;20598;-55
2021/11/05 11:37:41;;;;;;;3.33;1.10;;;22.60;52.60;;;;;;5227445;28;20043;-58
2021/11/05 11:40:13;;;;;;;1.98;1.10;;;22.60;52.60;;;;;;5238161;28;20511;-53
2021/11/05 11:42:46;;;;;;;1.90;1.00;;;22.60;52.60;;;;;;5220543;28;20491;-51
2021/11/05 11:45:19;;;;;;;2.00;1.10;;;22.60;52.60;;;;;;5246292;28;20047;-54
2021/11/05 11:47:53;;;;;;;1.65;1.00;;;22.60;52.60;;;;;;5216326;28;20054;-51
2021/11/05 11:50:31;;;;;;;5.20;1.30;;;22.60;52.60;;;;;;5227661;28;20056;-58
2021/11/05 11:53:09;;;;;;;1.98;1.10;;;22.60;52.60;;;;;;5242204;28;20519;-54
2021/11/05 11:55:41;;;;;;;2.92;1.23;;;22.60;52.70;;;;;;5241738;28;20051;-57
2021/11/05 11:58:19;;;;;;;4.22;1.25;;;22.60;52.70;;;;;;5246653;28;20044;-57
2021/11/05 12:00:52;;;;;;;1.77;0.88;;;22.60;52.70;;;;;;5225690;28;20061;-53
2021/11/05 12:03:27;;;;;;;1.65;0.90;;;22.60;52.70;;;;;;5242240;27;20047;-56
2021/11/05 12:06:00;;;;;;;1.85;1.20;;;22.60;52.60;;;;;;5239113;28;20043;-56
2021/11/05 12:08:45;;;;;;;1.50;1.33;;;22.60;52.60;;;;;;5244647;28;20519;-58
2021/11/05 12:11:20;;;;;;;1.58;0.90;;;22.60;52.60;;;;;;5247789;28;20043;-61
2021/11/05 12:14:13;;;;;;;1.98;1.00;;;22.60;52.70;;;;;;5238849;28;20052;-58
2021/11/05 12:17:01;;;;;;;1.10;0.93;;;22.60;52.70;;;;;;5239925;28;20419;-53
2021/11/05 12:19:36;;;;;;;2.55;1.10;;;22.60;52.70;;;;;;5222621;28;20408;-56
2021/11/05 12:22:16;;;;;;;1.58;0.93;;;22.60;52.70;;;;;;5244923;28;20063;-58
2021/11/05 12:24:48;;;;;;;2.20;0.98;;;22.60;52.70;;;;;;5238807;28;20051;-56
2021/11/05 12:27:26;;;;;;;3.30;0.90;;;22.60;52.70;;;;;;5238463;28;20055;-59
2021/11/05 12:30:03;;;;;;;1.75;0.90;;;22.60;52.70;;;;;;5221853;28;20047;-49
2021/11/05 12:32:37;;;;;;;1.58;0.90;;;22.60;52.70;;;;;;5241738;28;20062;-56
2021/11/05 12:35:17;;;;;;;2.22;1.08;;;22.60;52.70;;;;;;5227317;28;20515;-53
2021/11/05 12:38:07;;;;;;;1.23;1.00;;;22.60;52.70;;;;;;5247985;28;20044;-50
2021/11/05 12:40:45;;;;;;;1.15;0.73;;;22.60;52.70;;;;;;5243523;28;20039;-59
2021/11/05 12:43:22;;;;;;;1.85;0.90;;;22.60;52.70;;;;;;5239597;28;26039;-51
2021/11/05 12:46:10;;;;;;;2.05;0.80;;;22.60;53.40;;;;;;5248358;28;20055;-53
2021/11/05 12:48:48;;;;;;;1.20;0.93;;;22.60;52.70;;;;;;5240780;28;20040;-58
2021/11/05 12:51:30;;;;;;;1.55;1.00;;;22.60;52.80;;;;;;5226912;28;20063;-49
2021/11/05 12:54:07;;;;;;;1.95;0.95;;;22.60;52.70;;;;;;5224002;28;20393;-59
2021/11/05 12:56:41;;;;;;;0.85;0.70;;;22.60;53.40;;;;;;5241549;28;25349;-57
2021/11/05 12:59:15;;;;;;;1.15;0.80;;;22.60;52.80;;;;;;5236621;28;20146;-53
2021/11/05 13:01:53;;;;;;;1.92;0.90;;;22.60;52.90;;;;;;5245365;28;20043;-53
2021/11/05 13:04:29;;;;;;;1.15;0.70;;;22.60;52.90;;;;;;5218445;28;20047;-53
2021/11/05 13:07:05;;;;;;;1.30;0.80;;;22.60;52.80;;;;;;5238632;28;20669;-57
2021/11/05 13:09:39;;;;;;;1.40;0.90;;;22.60;52.80;;;;;;5238019;28;20062;-55
2021/11/05 13:12:18;;;;;;;2.25;0.68;;;22.60;52.80;;;;;;5248531;28;20518;-51
2021/11/05 13:14:58;;;;;;;1.35;0.90;;;22.60;52.80;;;;;;5246114;28;20050;-56
2021/11/05 13:17:31;;;;;;;1.52;0.73;;;22.60;52.80;;;;;;5236665;28;20411;-52
2021/11/05 13:20:24;;;;;;;1.20;0.98;;;22.60;52.80;;;;;;5247751;28;20055;-57